Time;durP1;ratioP1;P1;durP2;ratioP2;P2;SDS_P1;SDS_P2;PMS_P1;PMS_P2;Temp;Humidity;BMP_temperature;BMP_pressure;BME280_temperature;BME280_humidity;BME280_pressure;Samples;Min_cycle;Max_cycle;Signal;HPM_P1;HPM_P2
2023/10/28 00:00:17;;;;;;;0.90;0.70;;;;;;;;;;8062312;29;20395;-73
2023/10/28 00:04:17;;;;;;;0.60;0.60;;;;;;;;;;8061779;29;20276;-73
2023/10/28 00:08:17;;;;;;;2.17;0.80;;;;;;;;;;8070615;29;20029;-73
2023/10/28 00:12:18;;;;;;;2.50;0.75;;;;;;;;;;8059692;29;20039;-73
2023/10/28 00:16:18;;;;;;;0.53;0.50;;;;;;;;;;8072404;29;20095;-73
2023/10/28 00:20:19;;;;;;;1.20;0.50;;;;;;;;;;8091688;29;20332;-73
2023/10/28 00:24:19;;;;;;;0.63;0.63;;;;;;;;;;8091137;29;20409;-73
2023/10/28 00:28:20;;;;;;;1.50;0.60;;;;;;;;;;8089408;29;20028;-73
2023/10/28 00:32:23;;;;;;;0.50;0.50;;;;;;;;;;8076441;29;20033;-73
2023/10/28 00:36:23;;;;;;;1.13;0.50;;;;;;;;;;8057829;29;20681;-73
2023/10/28 00:40:28;;;;;;;1.35;0.50;;;;;;;;;;8061521;29;20033;-73
2023/10/28 00:44:31;;;;;;;0.50;0.50;;;;;;;;;;8062225;29;21356;-73
2023/10/28 00:48:31;;;;;;;0.40;0.40;;;;;;;;;;8059617;29;20036;-73
2023/10/28 00:52:31;;;;;;;0.50;0.50;;;;;;;;;;8059672;29;20115;-73
2023/10/28 00:56:31;;;;;;;0.85;0.60;;;;;;;;;;8058953;29;20150;-73
2023/10/28 01:00:32;;;;;;;1.07;0.60;;;;;;;;;;8064706;29;20515;-73
2023/10/28 01:04:32;;;;;;;0.50;0.50;;;;;;;;;;8090065;29;20781;-73
2023/10/28 01:08:32;;;;;;;0.57;0.57;;;;;;;;;;8088912;29;20043;-73
2023/10/28 01:12:32;;;;;;;0.70;0.65;;;;;;;;;;8089399;29;20035;-73
2023/10/28 01:16:33;;;;;;;0.60;0.60;;;;;;;;;;8075814;29;20163;-73
2023/10/28 01:20:34;;;;;;;0.60;0.60;;;;;;;;;;8054145;29;20035;-73
2023/10/28 01:24:35;;;;;;;0.45;0.45;;;;;;;;;;8059241;29;20446;-73
2023/10/28 01:28:36;;;;;;;0.93;0.70;;;;;;;;;;8058144;29;20024;-72
2023/10/28 01:32:36;;;;;;;0.52;0.52;;;;;;;;;;8057291;29;20147;-73
2023/10/28 01:36:36;;;;;;;0.52;0.52;;;;;;;;;;8057060;29;20434;-73
2023/10/28 01:40:36;;;;;;;0.50;0.50;;;;;;;;;;8057034;29;20039;-73
2023/10/28 01:44:37;;;;;;;0.70;0.70;;;;;;;;;;8056986;29;20103;-73
2023/10/28 01:48:37;;;;;;;1.48;0.55;;;;;;;;;;8060205;29;20036;-72
2023/10/28 01:52:37;;;;;;;1.37;0.70;;;;;;;;;;8058442;29;20032;-72
2023/10/28 01:56:38;;;;;;;3.60;0.90;;;;;;;;;;8058700;29;20296;-74
2023/10/28 02:00:38;;;;;;;2.45;1.10;;;;;;;;;;8060723;29;20078;-73
2023/10/28 02:04:38;;;;;;;1.97;0.70;;;;;;;;;;8058690;29;20068;-73
2023/10/28 02:08:38;;;;;;;1.02;0.93;;;;;;;;;;8055419;29;20044;-73
2023/10/28 02:12:39;;;;;;;4.07;0.90;;;;;;;;;;8058413;29;20032;-73
2023/10/28 02:16:39;;;;;;;4.53;0.90;;;;;;;;;;8059196;29;20295;-73
2023/10/28 02:20:41;;;;;;;0.80;0.80;;;;;;;;;;8059591;29;20040;-72
2023/10/28 02:24:41;;;;;;;1.77;0.90;;;;;;;;;;8055628;29;20048;-73
2023/10/28 02:28:41;;;;;;;2.28;0.93;;;;;;;;;;8057851;29;20056;-73
2023/10/28 02:32:41;;;;;;;0.82;0.68;;;;;;;;;;8058908;29;20033;-73
2023/10/28 02:36:42;;;;;;;2.72;0.95;;;;;;;;;;8058504;29;20163;-73
2023/10/28 02:40:46;;;;;;;2.07;1.10;;;;;;;;;;8057297;29;20035;-73
2023/10/28 02:44:46;;;;;;;1.73;0.90;;;;;;;;;;8058720;29;20035;-73
2023/10/28 02:48:46;;;;;;;1.20;0.90;;;;;;;;;;8059475;29;20044;-74
2023/10/28 02:52:47;;;;;;;2.78;1.00;;;;;;;;;;8054677;29;20028;-74
2023/10/28 02:56:47;;;;;;;3.73;0.83;;;;;;;;;;8060182;29;20028;-73
2023/10/28 03:00:47;;;;;;;5.00;1.23;;;;;;;;;;8058243;29;20044;-74
2023/10/28 03:04:47;;;;;;;4.68;1.23;;;;;;;;;;8058087;29;20059;-73
2023/10/28 03:08:47;;;;;;;4.38;1.15;;;;;;;;;;8057923;29;20036;-73
2023/10/28 03:12:47;;;;;;;4.85;0.98;;;;;;;;;;8058357;29;21055;-73
2023/10/28 03:16:48;;;;;;;3.00;1.05;;;;;;;;;;8055644;29;20044;-73
2023/10/28 03:20:48;;;;;;;1.95;0.98;;;;;;;;;;8054469;29;20028;-73
2023/10/28 03:24:48;;;;;;;1.77;1.00;;;;;;;;;;8058666;29;20039;-73
2023/10/28 03:28:49;;;;;;;2.28;0.85;;;;;;;;;;8055972;29;20747;-74
2023/10/28 03:32:49;;;;;;;2.00;0.70;;;;;;;;;;8053711;29;20040;-73
2023/10/28 03:36:50;;;;;;;2.38;0.77;;;;;;;;;;8055830;29;20484;-73
2023/10/28 03:40:50;;;;;;;1.75;0.80;;;;;;;;;;8057394;29;20041;-74
2023/10/28 03:44:51;;;;;;;2.40;0.82;;;;;;;;;;8053945;29;20044;-73
2023/10/28 03:48:51;;;;;;;4.18;0.90;;;;;;;;;;8056277;29;20621;-73
2023/10/28 03:52:51;;;;;;;2.40;0.70;;;;;;;;;;8055915;29;20342;-73
2023/10/28 03:56:51;;;;;;;0.93;0.57;;;;;;;;;;8063441;29;20984;-73
2023/10/28 04:00:55;;;;;;;2.03;0.90;;;;;;;;;;8058081;29;20055;-73
2023/10/28 04:04:56;;;;;;;1.10;0.60;;;;;;;;;;8058847;29;20069;-73
2023/10/28 04:08:56;;;;;;;2.45;0.90;;;;;;;;;;8057555;29;20044;-72
2023/10/28 04:12:56;;;;;;;4.30;0.90;;;;;;;;;;8060822;29;20048;-73
2023/10/28 04:16:56;;;;;;;1.95;0.80;;;;;;;;;;8059345;29;20040;-73
2023/10/28 04:20:56;;;;;;;2.85;0.95;;;;;;;;;;8057686;29;20042;-71
2023/10/28 04:24:57;;;;;;;2.05;1.00;;;;;;;;;;8059103;29;20035;-73
2023/10/28 04:29:00;;;;;;;2.38;1.10;;;;;;;;;;8055968;29;20150;-73
2023/10/28 04:33:00;;;;;;;3.63;1.20;;;;;;;;;;8054623;29;20088;-73
2023/10/28 04:37:00;;;;;;;5.22;1.00;;;;;;;;;;8062127;29;20063;-73
2023/10/28 04:41:00;;;;;;;5.22;1.23;;;;;;;;;;8058778;29;20518;-73
2023/10/28 04:45:04;;;;;;;6.53;1.30;;;;;;;;;;8057051;29;20067;-73
2023/10/28 04:49:04;;;;;;;3.15;1.30;;;;;;;;;;8059154;29;20807;-73
2023/10/28 04:53:04;;;;;;;3.95;1.10;;;;;;;;;;8061063;29;20039;-73
2023/10/28 04:57:05;;;;;;;3.88;1.20;;;;;;;;;;8061152;29;20039;-72
2023/10/28 05:01:05;;;;;;;7.05;1.20;;;;;;;;;;8061991;29;20555;-73
2023/10/28 05:05:05;;;;;;;4.55;1.17;;;;;;;;;;8068338;29;20099;-72
2023/10/28 05:09:06;;;;;;;4.53;1.40;;;;;;;;;;8061051;29;20520;-73
2023/10/28 05:13:06;;;;;;;5.65;1.40;;;;;;;;;;8059494;29;20994;-74
2023/10/28 05:17:06;;;;;;;4.95;1.20;;;;;;;;;;8060772;29;20043;-72
2023/10/28 05:21:06;;;;;;;5.32;1.40;;;;;;;;;;8058332;29;20029;-73
2023/10/28 05:25:07;;;;;;;5.00;1.42;;;;;;;;;;8057727;29;20106;-73
2023/10/28 05:29:07;;;;;;;4.80;1.35;;;;;;;;;;8062004;29;20037;-73
2023/10/28 05:33:10;;;;;;;5.93;1.30;;;;;;;;;;8057983;29;20112;-73
2023/10/28 05:37:10;;;;;;;5.13;2.13;;;;;;;;;;8057992;29;20637;-73
2023/10/28 05:41:10;;;;;;;3.28;1.27;;;;;;;;;;8060651;29;20028;-73
2023/10/28 05:45:13;;;;;;;5.47;1.63;;;;;;;;;;8057665;29;20036;-73
2023/10/28 05:49:14;;;;;;;4.93;1.50;;;;;;;;;;8055560;29;20981;-73
2023/10/28 05:53:14;;;;;;;4.10;1.60;;;;;;;;;;8060727;29;20032;-73
2023/10/28 05:57:14;;;;;;;2.97;1.03;;;;;;;;;;8059494;29;20028;-73
2023/10/28 06:01:14;;;;;;;8.40;1.52;;;;;;;;;;8058339;29;20060;-73
2023/10/28 06:05:15;;;;;;;4.32;1.40;;;;;;;;;;8057746;29;20028;-73
2023/10/28 06:09:15;;;;;;;3.28;1.25;;;;;;;;;;8058027;29;20111;-73
2023/10/28 06:13:16;;;;;;;5.28;1.27;;;;;;;;;;8061381;29;20029;-73
2023/10/28 06:17:16;;;;;;;5.43;1.50;;;;;;;;;;8060529;29;20036;-73
2023/10/28 06:21:16;;;;;;;4.55;1.27;;;;;;;;;;8056715;29;20028;-73
2023/10/28 06:25:16;;;;;;;5.75;1.58;;;;;;;;;;8062008;29;20932;-79
2023/10/28 06:29:17;;;;;;;3.83;1.33;;;;;;;;;;8060023;29;20035;-79
2023/10/28 06:33:17;;;;;;;5.53;1.20;;;;;;;;;;8058291;29;20036;-78
2023/10/28 06:37:17;;;;;;;3.25;1.08;;;;;;;;;;8062203;29;20024;-78
2023/10/28 06:41:18;;;;;;;9.30;1.52;;;;;;;;;;8061568;29;20088;-78
2023/10/28 06:45:19;;;;;;;5.15;1.40;;;;;;;;;;8059669;29;20057;-78
2023/10/28 06:49:19;;;;;;;3.80;1.13;;;;;;;;;;8057487;29;20974;-78
2023/10/28 06:53:21;;;;;;;4.13;1.20;;;;;;;;;;8058820;29;20028;-78
2023/10/28 06:57:21;;;;;;;3.70;1.23;;;;;;;;;;8060462;29;20063;-78
2023/10/28 07:01:22;;;;;;;5.93;1.42;;;;;;;;;;8063657;29;20524;-78
2023/10/28 07:05:24;;;;;;;3.60;1.20;;;;;;;;;;8067275;29;20038;-78
2023/10/28 07:09:24;;;;;;;4.95;1.75;;;;;;;;;;8060778;29;20530;-78
2023/10/28 07:13:24;;;;;;;6.40;1.45;;;;;;;;;;8071650;29;20036;-79
2023/10/28 07:17:26;;;;;;;4.30;1.55;;;;;;;;;;8067272;29;20045;-79
2023/10/28 07:21:26;;;;;;;4.65;1.30;;;;;;;;;;8062622;29;20031;-78
2023/10/28 07:25:27;;;;;;;4.78;1.10;;;;;;;;;;8059767;29;20101;-78
2023/10/28 07:29:28;;;;;;;2.03;0.98;;;;;;;;;;8057404;29;20028;-79
2023/10/28 07:33:28;;;;;;;3.38;1.20;;;;;;;;;;8059151;29;20044;-80
2023/10/28 07:37:28;;;;;;;4.88;1.33;;;;;;;;;;8054143;29;22339;-78
2023/10/28 07:41:29;;;;;;;2.47;1.10;;;;;;;;;;8057630;29;20036;-78
2023/10/28 07:45:29;;;;;;;3.75;1.23;;;;;;;;;;8060291;29;20166;-78
2023/10/28 07:49:30;;;;;;;4.35;1.27;;;;;;;;;;8057364;29;20107;-78
2023/10/28 07:53:30;;;;;;;5.72;1.33;;;;;;;;;;8059849;29;20024;-78
2023/10/28 07:57:30;;;;;;;7.28;1.73;;;;;;;;;;8057707;29;20032;-78
2023/10/28 08:01:30;;;;;;;5.38;1.30;;;;;;;;;;8062106;29;20048;-79
2023/10/28 08:05:31;;;;;;;7.22;1.30;;;;;;;;;;8061632;29;20043;-79
2023/10/28 08:09:31;;;;;;;6.03;1.60;;;;;;;;;;8061802;29;22584;-78
2023/10/28 08:13:32;;;;;;;4.68;1.40;;;;;;;;;;8056909;29;20083;-79
2023/10/28 08:17:32;;;;;;;9.68;1.40;;;;;;;;;;8058249;29;20075;-79
2023/10/28 08:21:32;;;;;;;6.18;1.52;;;;;;;;;;8053627;29;20029;-78
2023/10/28 08:25:33;;;;;;;6.15;1.50;;;;;;;;;;8060351;29;20422;-79
2023/10/28 08:29:33;;;;;;;6.82;1.40;;;;;;;;;;8056559;29;20028;-79
2023/10/28 08:33:37;;;;;;;3.78;1.25;;;;;;;;;;8055372;29;20041;-78
2023/10/28 08:37:37;;;;;;;7.45;2.13;;;;;;;;;;8056806;29;20568;-78
2023/10/28 08:41:38;;;;;;;6.53;1.48;;;;;;;;;;8060976;29;20647;-78
2023/10/28 08:45:39;;;;;;;3.17;1.30;;;;;;;;;;8058471;29;20057;-79
2023/10/28 08:49:42;;;;;;;8.57;1.60;;;;;;;;;;8055713;29;20288;-78
2023/10/28 08:53:44;;;;;;;6.93;1.35;;;;;;;;;;8057333;29;21030;-78
2023/10/28 08:57:46;;;;;;;5.55;1.45;;;;;;;;;;8056913;29;20032;-79
2023/10/28 09:01:47;;;;;;;5.75;1.30;;;;;;;;;;8055716;29;20068;-78
2023/10/28 09:05:52;;;;;;;9.52;1.60;;;;;;;;;;8055276;29;20024;-78
2023/10/28 09:09:58;;;;;;;9.98;1.65;;;;;;;;;;8057678;29;20497;-78
2023/10/28 09:13:59;;;;;;;6.30;1.63;;;;;;;;;;8061022;29;20034;-78
2023/10/28 09:18:01;;;;;;;9.05;1.50;;;;;;;;;;8060347;29;20142;-79
2023/10/28 09:22:02;;;;;;;4.30;1.50;;;;;;;;;;8058655;29;20031;-78
2023/10/28 09:26:04;;;;;;;5.07;1.40;;;;;;;;;;8055150;29;20661;-78
2023/10/28 09:30:10;;;;;;;6.20;1.90;;;;;;;;;;8057754;29;20619;-79
2023/10/28 09:34:11;;;;;;;5.28;1.35;;;;;;;;;;8074481;29;20111;-78
2023/10/28 09:38:11;;;;;;;7.25;1.50;;;;;;;;;;8061146;29;20036;-79
2023/10/28 09:42:12;;;;;;;4.97;1.58;;;;;;;;;;8061852;29;20024;-79
2023/10/28 09:46:16;;;;;;;7.50;1.48;;;;;;;;;;8060794;29;20051;-78
2023/10/28 09:50:20;;;;;;;5.03;1.48;;;;;;;;;;8061039;29;20035;-78
2023/10/28 09:54:23;;;;;;;6.43;1.70;;;;;;;;;;8061065;29;20036;-78
2023/10/28 09:58:38;;;;;;;11.30;1.73;;;;;;;;;;8063297;29;20573;-78
2023/10/28 10:02:48;;;;;;;6.10;1.65;;;;;;;;;;8060056;29;20086;-78
2023/10/28 10:06:48;;;;;;;3.83;1.50;;;;;;;;;;8058847;29;20706;-79
2023/10/28 10:10:50;;;;;;;8.65;1.85;;;;;;;;;;8064230;29;20032;-79
2023/10/28 10:14:50;;;;;;;8.70;2.25;;;;;;;;;;8060478;29;20560;-78
2023/10/28 10:18:53;;;;;;;9.07;2.07;;;;;;;;;;8063125;29;20540;-79
2023/10/28 10:23:00;;;;;;;7.83;1.87;;;;;;;;;;8058136;29;20334;-79
2023/10/28 10:27:02;;;;;;;9.73;1.67;;;;;;;;;;8060507;29;20181;-78
2023/10/28 10:31:08;;;;;;;5.65;1.50;;;;;;;;;;8061259;29;20044;-78
2023/10/28 10:35:10;;;;;;;7.22;1.40;;;;;;;;;;8058500;29;20728;-79
2023/10/28 10:39:14;;;;;;;5.07;1.38;;;;;;;;;;8063885;29;20909;-79
2023/10/28 10:43:14;;;;;;;;;;;;;;;;;;8067270;29;20020;-79
2023/10/28 10:47:17;;;;;;;4.95;1.65;;;;;;;;;;8066690;29;19918;-79
2023/10/28 10:51:19;;;;;;;6.85;1.98;;;;;;;;;;8067033;29;20031;-79
2023/10/28 10:55:21;;;;;;;5.32;1.50;;;;;;;;;;8077088;29;20040;-78
2023/10/28 10:59:21;;;;;;;7.53;1.95;;;;;;;;;;8063344;29;20068;-78
2023/10/28 11:03:24;;;;;;;6.18;1.88;;;;;;;;;;8062579;29;20082;-78
2023/10/28 11:07:24;;;;;;;6.10;1.85;;;;;;;;;;8061966;29;20656;-78
2023/10/28 11:11:25;;;;;;;7.55;1.77;;;;;;;;;;8061277;29;20071;-79
2023/10/28 11:15:25;;;;;;;7.05;1.88;;;;;;;;;;8059534;29;20048;-78
2023/10/28 11:19:25;;;;;;;12.93;2.00;;;;;;;;;;8056970;29;20043;-78
2023/10/28 11:23:26;;;;;;;8.38;1.88;;;;;;;;;;8061912;29;20029;-78
2023/10/28 11:27:27;;;;;;;6.82;1.90;;;;;;;;;;8063170;29;20089;-78
2023/10/28 11:31:28;;;;;;;5.95;1.85;;;;;;;;;;8058810;29;21740;-79
2023/10/28 11:35:30;;;;;;;6.10;1.73;;;;;;;;;;8060072;29;20025;-78
2023/10/28 11:39:33;;;;;;;8.02;1.75;;;;;;;;;;8055976;29;20040;-78
2023/10/28 11:43:34;;;;;;;5.75;2.00;;;;;;;;;;8059344;29;20036;-79
2023/10/28 11:47:34;;;;;;;9.18;2.00;;;;;;;;;;8060493;29;20043;-78
2023/10/28 11:51:34;;;;;;;6.47;1.90;;;;;;;;;;8056887;29;20043;-78
2023/10/28 11:55:34;;;;;;;7.93;1.67;;;;;;;;;;8058615;29;20067;-78
2023/10/28 11:59:35;;;;;;;10.82;2.30;;;;;;;;;;8057339;29;20031;-78
2023/10/28 12:03:35;;;;;;;7.72;1.75;;;;;;;;;;8059690;29;20087;-78
2023/10/28 12:07:35;;;;;;;10.23;1.65;;;;;;;;;;8060139;29;20414;-78
2023/10/28 12:11:36;;;;;;;6.57;1.90;;;;;;;;;;8057298;29;20136;-79
2023/10/28 12:15:36;;;;;;;9.82;1.88;;;;;;;;;;8058449;29;20052;-78
2023/10/28 12:19:36;;;;;;;5.72;1.48;;;;;;;;;;8060568;29;20294;-79
2023/10/28 12:23:37;;;;;;;6.80;1.45;;;;;;;;;;8059612;29;20039;-72
2023/10/28 12:27:38;;;;;;;8.93;1.35;;;;;;;;;;8055399;29;20070;-71
2023/10/28 12:31:38;;;;;;;5.53;1.60;;;;;;;;;;8055082;29;20083;-72
2023/10/28 12:35:38;;;;;;;9.10;1.38;;;;;;;;;;8050498;29;20920;-72
2023/10/28 12:39:38;;;;;;;3.30;1.17;;;;;;;;;;8056786;29;20028;-75
2023/10/28 12:43:39;;;;;;;2.83;1.02;;;;;;;;;;8057409;29;20032;-78
2023/10/28 12:47:39;;;;;;;4.03;2.35;;;;;;;;;;8057662;29;20036;-78
2023/10/28 12:51:39;;;;;;;2.78;1.10;;;;;;;;;;8060127;29;20028;-79
2023/10/28 12:55:41;;;;;;;5.60;1.57;;;;;;;;;;8060937;29;20032;-78
2023/10/28 12:59:46;;;;;;;3.65;1.40;;;;;;;;;;8052949;29;20091;-78
2023/10/28 13:03:46;;;;;;;3.28;1.10;;;;;;;;;;8055395;29;20044;-78
2023/10/28 13:07:46;;;;;;;3.93;1.33;;;;;;;;;;8059209;29;20020;-78
2023/10/28 13:11:47;;;;;;;1.60;1.00;;;;;;;;;;8056956;29;20040;-78
2023/10/28 13:15:48;;;;;;;1.83;0.83;;;;;;;;;;8064508;29;20052;-78
2023/10/28 13:19:49;;;;;;;2.80;1.10;;;;;;;;;;8055484;29;21209;-79
2023/10/28 13:23:50;;;;;;;2.20;1.00;;;;;;;;;;8053156;29;20032;-78
2023/10/28 13:27:51;;;;;;;2.78;0.90;;;;;;;;;;8058751;29;20025;-78
2023/10/28 13:31:51;;;;;;;2.85;1.13;;;;;;;;;;8055154;29;20044;-79
2023/10/28 13:35:54;;;;;;;1.70;0.83;;;;;;;;;;8067050;29;20089;-79
2023/10/28 13:39:55;;;;;;;4.70;1.05;;;;;;;;;;8067775;29;20131;-79
2023/10/28 13:43:55;;;;;;;2.83;1.02;;;;;;;;;;8055019;29;20435;-79
2023/10/28 13:47:55;;;;;;;1.90;0.93;;;;;;;;;;8053996;29;20044;-78
2023/10/28 13:52:00;;;;;;;2.88;1.10;;;;;;;;;;8054745;29;20485;-78
2023/10/28 13:56:00;;;;;;;1.90;1.13;;;;;;;;;;8056976;29;20136;-78
2023/10/28 14:00:05;;;;;;;3.58;1.20;;;;;;;;;;8059162;29;20167;-77
2023/10/28 14:04:06;;;;;;;4.05;1.10;;;;;;;;;;8056719;29;20064;-78
2023/10/28 14:08:06;;;;;;;2.17;1.07;;;;;;;;;;8053139;29;20040;-78
2023/10/28 14:12:07;;;;;;;2.33;1.00;;;;;;;;;;8056746;29;20091;-77
2023/10/28 14:16:16;;;;;;;2.90;0.90;;;;;;;;;;8058825;29;20055;-76
2023/10/28 14:20:18;;;;;;;2.60;1.13;;;;;;;;;;8057427;29;20051;-78
2023/10/28 14:24:21;;;;;;;4.30;1.25;;;;;;;;;;8057219;29;20048;-77
2023/10/28 14:28:21;;;;;;;1.73;1.10;;;;;;;;;;8058857;29;20069;-78
2023/10/28 14:32:21;;;;;;;1.48;1.10;;;;;;;;;;8058908;29;20044;-78
2023/10/28 14:36:22;;;;;;;2.25;0.90;;;;;;;;;;8059194;29;20032;-78
2023/10/28 14:40:22;;;;;;;3.53;1.33;;;;;;;;;;8059445;29;20370;-78
2023/10/28 14:44:22;;;;;;;5.10;1.38;;;;;;;;;;8059652;29;20544;-78
2023/10/28 14:48:23;;;;;;;4.33;0.90;;;;;;;;;;8058099;29;20043;-78
2023/10/28 14:52:24;;;;;;;4.60;1.35;;;;;;;;;;8059368;29;21321;-78
2023/10/28 14:56:25;;;;;;;4.78;1.35;;;;;;;;;;8067330;29;20691;-79
2023/10/28 15:00:25;;;;;;;3.45;1.08;;;;;;;;;;8061858;29;20119;-77
2023/10/28 15:04:26;;;;;;;3.25;1.15;;;;;;;;;;8055375;29;20029;-78
2023/10/28 15:08:26;;;;;;;2.47;1.10;;;;;;;;;;8057488;29;20496;-78
2023/10/28 15:12:28;;;;;;;3.05;1.88;;;;;;;;;;8060506;29;20024;-78
2023/10/28 15:16:28;;;;;;;4.25;1.42;;;;;;;;;;8057627;29;20044;-78
2023/10/28 15:20:32;;;;;;;3.15;1.40;;;;;;;;;;8055660;29;20036;-78
2023/10/28 15:24:33;;;;;;;5.32;1.98;;;;;;;;;;8062450;29;20444;-78
2023/10/28 15:28:34;;;;;;;5.43;1.90;;;;;;;;;;8060426;29;20139;-78
2023/10/28 15:32:34;;;;;;;7.70;3.42;;;;;;;;;;8060382;29;20378;-78
2023/10/28 15:36:34;;;;;;;5.20;2.10;;;;;;;;;;8055432;29;20092;-78
2023/10/28 15:40:36;;;;;;;7.93;5.07;;;;;;;;;;8059865;29;20024;-78
2023/10/28 15:44:37;;;;;;;6.90;3.20;;;;;;;;;;8058147;29;20020;-78
2023/10/28 15:48:38;;;;;;;7.43;3.77;;;;;;;;;;8055251;29;20679;-77
2023/10/28 15:52:39;;;;;;;9.13;3.70;;;;;;;;;;8052923;29;20032;-77
2023/10/28 15:56:40;;;;;;;9.23;2.78;;;;;;;;;;8056075;29;20024;-77
2023/10/28 16:00:40;;;;;;;3.10;1.23;;;;;;;;;;8057704;29;20051;-78
2023/10/28 16:04:42;;;;;;;7.57;2.00;;;;;;;;;;8059637;29;20075;-77
2023/10/28 16:08:42;;;;;;;5.43;2.92;;;;;;;;;;8058881;29;20284;-77
2023/10/28 16:12:43;;;;;;;5.35;2.10;;;;;;;;;;8056382;29;20115;-77
2023/10/28 16:16:43;;;;;;;5.20;2.28;;;;;;;;;;8055544;29;20900;-77
2023/10/28 16:20:43;;;;;;;3.95;1.90;;;;;;;;;;8060194;29;20115;-78
2023/10/28 16:24:44;;;;;;;5.10;2.28;;;;;;;;;;8068921;29;20032;-78
2023/10/28 16:28:44;;;;;;;5.97;2.53;;;;;;;;;;8061208;29;20152;-78
2023/10/28 16:32:44;;;;;;;4.28;1.58;;;;;;;;;;8061019;29;20289;-78
2023/10/28 16:36:44;;;;;;;5.97;1.70;;;;;;;;;;8062593;29;20028;-77
2023/10/28 16:40:44;;;;;;;4.70;2.08;;;;;;;;;;8062135;29;20106;-77
2023/10/28 16:44:45;;;;;;;4.80;1.83;;;;;;;;;;8060854;29;20025;-77
2023/10/28 16:48:46;;;;;;;6.35;3.03;;;;;;;;;;8071113;29;20039;-77
2023/10/28 16:52:46;;;;;;;12.20;6.00;;;;;;;;;;8067000;29;20032;-77
2023/10/28 16:56:48;;;;;;;18.13;8.98;;;;;;;;;;8064161;29;20028;-78
2023/10/28 17:00:49;;;;;;;29.98;14.38;;;;;;;;;;8056672;29;20398;-77
2023/10/28 17:04:49;;;;;;;25.98;13.45;;;;;;;;;;8060314;29;20039;-77
2023/10/28 17:08:49;;;;;;;22.98;8.50;;;;;;;;;;8060165;29;20032;-71
2023/10/28 17:12:49;;;;;;;23.02;11.40;;;;;;;;;;8055933;29;20052;-72
2023/10/28 17:16:50;;;;;;;13.27;7.13;;;;;;;;;;8056885;29;20040;-71
2023/10/28 17:20:50;;;;;;;10.05;5.53;;;;;;;;;;8055390;29;20146;-71
2023/10/28 17:24:50;;;;;;;7.78;5.32;;;;;;;;;;8057174;29;20025;-71
2023/10/28 17:28:52;;;;;;;14.45;8.15;;;;;;;;;;8060012;29;20095;-70
2023/10/28 17:32:52;;;;;;;22.80;12.05;;;;;;;;;;8058650;29;20071;-71
2023/10/28 17:36:53;;;;;;;20.55;12.52;;;;;;;;;;8054226;29;20664;-71
2023/10/28 17:40:54;;;;;;;15.52;8.30;;;;;;;;;;8056293;29;20039;-71
2023/10/28 17:44:56;;;;;;;13.88;8.13;;;;;;;;;;8059713;29;20020;-71
2023/10/28 17:48:56;;;;;;;26.30;12.20;;;;;;;;;;8060819;29;20035;-71
2023/10/28 17:52:56;;;;;;;20.00;11.05;;;;;;;;;;8062383;29;20052;-71
2023/10/28 17:56:58;;;;;;;21.20;14.05;;;;;;;;;;8057368;29;20648;-70
2023/10/28 18:00:58;;;;;;;9.98;5.50;;;;;;;;;;8056938;29;20087;-71
2023/10/28 18:04:58;;;;;;;8.88;5.68;;;;;;;;;;8059184;29;20048;-71
2023/10/28 18:08:59;;;;;;;10.23;7.20;;;;;;;;;;8070565;29;20025;-71
2023/10/28 18:12:59;;;;;;;13.70;7.82;;;;;;;;;;8063421;29;20326;-71
2023/10/28 18:16:59;;;;;;;14.40;8.88;;;;;;;;;;8061679;29;20047;-71
2023/10/28 18:20:59;;;;;;;18.02;8.02;;;;;;;;;;8062323;29;20259;-71
2023/10/28 18:24:59;;;;;;;12.02;7.00;;;;;;;;;;8064535;29;20052;-71
2023/10/28 18:28:59;;;;;;;10.57;5.43;;;;;;;;;;8063061;29;20148;-71
2023/10/28 18:33:00;;;;;;;11.82;5.13;;;;;;;;;;8062316;29;20036;-71
2023/10/28 18:37:00;;;;;;;6.65;3.38;;;;;;;;;;8065520;29;20755;-71
2023/10/28 18:41:06;;;;;;;9.57;4.68;;;;;;;;;;8065153;29;20031;-71
2023/10/28 18:45:06;;;;;;;6.65;3.05;;;;;;;;;;8062290;29;20042;-72
2023/10/28 18:49:07;;;;;;;5.40;2.70;;;;;;;;;;8060396;29;20025;-70
2023/10/28 18:53:07;;;;;;;7.73;4.03;;;;;;;;;;8059620;29;20181;-71
2023/10/28 18:57:08;;;;;;;10.27;5.70;;;;;;;;;;8064513;29;20035;-71
2023/10/28 19:01:11;;;;;;;8.55;4.45;;;;;;;;;;8065386;29;20136;-71
2023/10/28 19:05:12;;;;;;;6.78;3.13;;;;;;;;;;8067967;29;20898;-71
2023/10/28 19:09:12;;;;;;;5.88;3.53;;;;;;;;;;8072827;29;20784;-70
2023/10/28 19:13:12;;;;;;;5.05;3.35;;;;;;;;;;8070116;29;20075;-72
2023/10/28 19:17:14;;;;;;;7.35;3.90;;;;;;;;;;8068134;29;20091;-72
2023/10/28 19:21:14;;;;;;;8.05;3.42;;;;;;;;;;8064646;29;20029;-72
2023/10/28 19:25:16;;;;;;;5.82;3.47;;;;;;;;;;8068642;29;20018;-71
2023/10/28 19:29:16;;;;;;;14.48;6.30;;;;;;;;;;8080102;29;20028;-71
2023/10/28 19:33:16;;;;;;;8.05;5.50;;;;;;;;;;8109614;29;20048;-71
2023/10/28 19:37:19;;;;;;;8.57;4.70;;;;;;;;;;8112840;29;20032;-70
2023/10/28 19:41:19;;;;;;;7.05;4.60;;;;;;;;;;8090188;29;20124;-71
2023/10/28 19:45:20;;;;;;;9.95;4.07;;;;;;;;;;8107996;29;20029;-71
2023/10/28 19:49:20;;;;;;;8.07;4.20;;;;;;;;;;8097882;29;20494;-71
2023/10/28 19:53:20;;;;;;;5.72;3.30;;;;;;;;;;8102677;29;20020;-71
2023/10/28 19:57:20;;;;;;;10.80;4.72;;;;;;;;;;8103188;29;20398;-71
2023/10/28 20:01:21;;;;;;;4.80;3.70;;;;;;;;;;8075816;29;20044;-71
2023/10/28 20:05:21;;;;;;;9.55;3.20;;;;;;;;;;8065192;29;20031;-71
2023/10/28 20:09:23;;;;;;;6.57;3.20;;;;;;;;;;8065792;29;20031;-71
2023/10/28 20:13:23;;;;;;;8.75;3.53;;;;;;;;;;8061125;29;20032;-71
2023/10/28 20:17:24;;;;;;;5.03;2.50;;;;;;;;;;8060994;29;20756;-72
2023/10/28 20:21:25;;;;;;;3.63;2.03;;;;;;;;;;8061951;29;20032;-71
2023/10/28 20:25:25;;;;;;;5.97;3.05;;;;;;;;;;8062678;29;20028;-71
2023/10/28 20:29:25;;;;;;;4.70;2.60;;;;;;;;;;8060957;29;20030;-71
2023/10/28 20:33:26;;;;;;;2.80;1.45;;;;;;;;;;8060222;29;20167;-71
2023/10/28 20:37:26;;;;;;;2.15;1.08;;;;;;;;;;8063132;29;20032;-72
2023/10/28 20:41:27;;;;;;;6.43;1.30;;;;;;;;;;8062955;29;20040;-72
2023/10/28 20:45:28;;;;;;;3.97;1.08;;;;;;;;;;8061095;29;20047;-72
2023/10/28 20:49:28;;;;;;;3.15;0.95;;;;;;;;;;8058843;29;20033;-72
2023/10/28 20:53:29;;;;;;;4.00;1.20;;;;;;;;;;8064433;29;20082;-71
2023/10/28 20:57:29;;;;;;;4.00;1.27;;;;;;;;;;8061716;29;20028;-72
2023/10/28 21:01:30;;;;;;;2.33;1.13;;;;;;;;;;8056925;29;20299;-71
2023/10/28 21:05:34;;;;;;;5.65;1.10;;;;;;;;;;8054889;29;20036;-71
2023/10/28 21:09:34;;;;;;;3.95;1.30;;;;;;;;;;8052982;29;20418;-72
2023/10/28 21:13:35;;;;;;;1.73;1.20;;;;;;;;;;8060783;29;20047;-73
2023/10/28 21:17:35;;;;;;;1.20;0.80;;;;;;;;;;8063407;29;20051;-71
2023/10/28 21:21:35;;;;;;;3.70;1.20;;;;;;;;;;8068479;29;20289;-72
2023/10/28 21:25:35;;;;;;;2.67;1.17;;;;;;;;;;8098438;29;20466;-72
2023/10/28 22:20:20;;;;;;;4.80;2.95;;;;;;;;;;8046673;29;20056;-64
2023/10/28 22:24:20;;;;;;;5.70;3.43;;;;;;;;;;8063256;29;20043;-64
2023/10/28 22:28:20;;;;;;;6.72;2.63;;;;;;;;;;8055322;29;21187;-64
2023/10/28 22:32:20;;;;;;;5.67;3.23;;;;;;;;;;8072624;28;20773;-64
2023/10/28 22:36:25;;;;;;;4.50;3.10;;;;;;;;;;8096534;29;20836;-63
2023/10/28 22:40:25;;;;;;;7.82;3.58;;;;;;;;;;8086470;29;21005;-64
2023/10/28 22:44:25;;;;;;;19.67;7.83;;;;;;;;;;8109839;29;20058;-64
2023/10/28 22:48:25;;;;;;;11.03;3.53;;;;;;;;;;8106789;29;20126;-64
2023/10/28 22:52:26;;;;;;;12.13;5.10;;;;;;;;;;8099284;29;20295;-64
2023/10/28 22:56:26;;;;;;;15.65;5.95;;;;;;;;;;8097545;29;20035;-64
2023/10/28 23:00:31;;;;;;;17.13;6.50;;;;;;;;;;8091917;29;20047;-64
2023/10/28 23:04:31;;;;;;;10.48;5.03;;;;;;;;;;8069033;28;22781;-64
2023/10/28 23:08:31;;;;;;;11.90;5.18;;;;;;;;;;8058771;28;22730;-64
2023/10/28 23:12:31;;;;;;;11.60;5.70;;;;;;;;;;8071660;28;20139;-64
2023/10/28 23:16:32;;;;;;;12.02;4.88;;;;;;;;;;8102341;28;20043;-64
2023/10/28 23:20:33;;;;;;;14.73;4.65;;;;;;;;;;8106904;29;20059;-64
2023/10/28 23:24:33;;;;;;;7.97;3.72;;;;;;;;;;8102122;29;20075;-64
2023/10/28 23:28:33;;;;;;;4.78;1.90;;;;;;;;;;8099243;29;20070;-63
2023/10/28 23:32:34;;;;;;;13.10;5.78;;;;;;;;;;8091156;29;20044;-64
2023/10/28 23:36:34;;;;;;;16.25;5.80;;;;;;;;;;8105660;29;20059;-64
2023/10/28 23:40:36;;;;;;;23.00;9.68;;;;;;;;;;8097105;29;20042;-64
2023/10/28 23:44:37;;;;;;;14.93;6.85;;;;;;;;;;8107771;28;20794;-64
2023/10/28 23:48:40;;;;;;;24.02;9.13;;;;;;;;;;8110694;28;20062;-64
2023/10/28 23:52:40;;;;;;;18.98;8.10;;;;;;;;;;8111941;28;20043;-64
2023/10/28 23:56:40;;;;;;;13.25;6.55;;;;;;;;;;8108022;29;20036;-64
